EDDBEPWR

Guest
Details From EDDB - Berlin Schoenefeld
To EPWR - STRACHOWICE
Flight Number -
Tags generated
Created
Modified
Stats Distance 147 nm / 272 km
Max Altitude 13,200 ft / 4,023 m
Waypoints 3
Social Downloads 0
Likes 0
Share VATSIM

Download

Looking for another format? Having issues loading an existing format? Contact us
Advertisement - Login to hide

Notes

Basic altitude profile: - Ascent Rate: 2500ft/min - Ascent Speed: 250kts - Cruise Altitude: 35000ft - Cruise Speed: 420kts - Descent Rate: 1500ft/min - Descent Speed: 250kts

Route

EDDB BENEK EPWR

ID Type Via Altitude Latitude Longitude Leg Dist Tot Dist Heading (true) Name
O EDDB APT - 0 ft / 0 m 52.37854˚ 13.52063˚ - 0 nm - Berlin Schoenefeld
BENEK FIX - 13,200 ft / 4,023 m 51.56806˚ 15.41278˚ 85 nm 85 nm 124° / 126° -
O EPWR APT - 0 ft / 0 m 51.10388˚ 16.88189˚ 61 nm 147 nm 116° / 117° STRACHOWICE

Altitude Profile

Advertisement - Login to hide

EDDB

Details ICAO EDDB (BER)
Name Berlin Schoenefeld
Region Germany - Civil
Timezone Europe/Berlin (UTC+2.0)
Stats Elevation 157 ft / 48 m (AMSL)
Location 52.378541° 13.520629°
Runways 2
Magnetic Variation 3.867° E

METAR

EDDB 270820Z 09006KT 030V190 CAVOK 23/12 Q1021 NOSIG

Decode

TAF

TAF TAF EDDB 270500Z 2706/2806 07007KT CAVOK PROB30 TEMPO 2712/2716 07015G25KT 4000 TSRA BKN040CB

Decode

Departure Runways

ID Width Length Bearing (true) Bearing (mag) Surface Threshold Offset Overrun Length
07 148 ft / 45 m 9,817 ft / 2,992 m 68.75° 64.88° Asphalt 0 ft / 0 m 984 ft / 300 m
07L 148 ft / 45 m 8,867 ft / 2,703 m 68.77° 64.90° Concrete 0 ft / 0 m 525 ft / 160 m
25 148 ft / 45 m 9,817 ft / 2,992 m 248.78° 244.91° Asphalt 0 ft / 0 m 984 ft / 300 m
25R 148 ft / 45 m 8,867 ft / 2,703 m 248.80° 244.93° Concrete 0 ft / 0 m 984 ft / 300 m

EPWR

Details ICAO EPWR (WRO)
Name STRACHOWICE
Region Poland
Timezone Europe/Warsaw (UTC+2.0)
Stats Elevation 404 ft / 123 m (AMSL)
Location 51.103882° 16.881892°
Runways 1
Magnetic Variation 4.670° E

METAR

EPWR 270830Z 12010KT CAVOK 24/16 Q1022

Decode

TAF

TAF EPWR 270830Z 2709/2809 10010KT CAVOK PROB30 2711/2717 SCT040CB

Decode

Destination Runways

ID Width Length Bearing (true) Bearing (mag) Surface Threshold Offset Overrun Length
12 197 ft / 60 m 8,192 ft / 2,497 m 115.99° 111.32° Concrete 0 ft / 0 m 0 ft / 0 m
30 197 ft / 60 m 8,192 ft / 2,497 m 296.01° 291.34° Concrete 0 ft / 0 m 0 ft / 0 m

Approach Navaids

Runway Type Ident Frequency Range Bearing (true) Bearing (mag) Slope Elevation
30 Localiser WRO 110.30 MHz 18 nm / 33 km 295.98° 291.31° - 404 ft / 123 m (AMSL)
30 Glidescope WRO 110.30 MHz 10 nm / 19 km 296.00° 291.33° 3.00° 404 ft / 123 m (AMSL)
30 DME WRO 110.30 MHz 18 nm / 33 km - - - 394 ft / 120 m (AMSL)

Popular Alternatives